sensor_id;sensor_type;location;lat;lon;timestamp;P1;durP1;ratioP1;P2;durP2;ratioP2
81191;SDS011;70665;47.652;-2.730;2023-08-24T00:00:15;7.97;;;3.75;;
81191;SDS011;70665;47.652;-2.730;2023-08-24T00:02:41;8.48;;;3.70;;
81191;SDS011;70665;47.652;-2.730;2023-08-24T00:05:07;5.88;;;3.85;;
81191;SDS011;70665;47.652;-2.730;2023-08-24T00:07:32;6.45;;;3.83;;
81191;SDS011;70665;47.652;-2.730;2023-08-24T00:09:58;7.68;;;4.18;;
81191;SDS011;70665;47.652;-2.730;2023-08-24T00:12:23;6.80;;;3.72;;
81191;SDS011;70665;47.652;-2.730;2023-08-24T00:14:49;10.25;;;4.15;;
81191;SDS011;70665;47.652;-2.730;2023-08-24T00:17:15;10.25;;;3.80;;
81191;SDS011;70665;47.652;-2.730;2023-08-24T00:19:40;8.00;;;4.05;;
81191;SDS011;70665;47.652;-2.730;2023-08-24T00:22:06;7.18;;;3.90;;
81191;SDS011;70665;47.652;-2.730;2023-08-24T00:24:31;9.27;;;3.85;;
81191;SDS011;70665;47.652;-2.730;2023-08-24T00:26:57;10.77;;;4.15;;
81191;SDS011;70665;47.652;-2.730;2023-08-24T00:29:23;6.88;;;3.90;;
81191;SDS011;70665;47.652;-2.730;2023-08-24T00:31:48;7.53;;;3.70;;
81191;SDS011;70665;47.652;-2.730;2023-08-24T00:34:14;6.93;;;4.10;;
81191;SDS011;70665;47.652;-2.730;2023-08-24T00:36:40;8.05;;;3.58;;
81191;SDS011;70665;47.652;-2.730;2023-08-24T00:39:05;7.47;;;3.80;;
81191;SDS011;70665;47.652;-2.730;2023-08-24T00:41:31;5.85;;;3.83;;
81191;SDS011;70665;47.652;-2.730;2023-08-24T00:43:57;7.70;;;3.95;;
81191;SDS011;70665;47.652;-2.730;2023-08-24T00:46:22;9.65;;;3.80;;
81191;SDS011;70665;47.652;-2.730;2023-08-24T00:48:52;7.85;;;3.90;;
81191;SDS011;70665;47.652;-2.730;2023-08-24T00:51:21;9.32;;;3.58;;
81191;SDS011;70665;47.652;-2.730;2023-08-24T00:53:47;6.45;;;4.00;;
81191;SDS011;70665;47.652;-2.730;2023-08-24T00:56:14;10.38;;;4.45;;
81191;SDS011;70665;47.652;-2.730;2023-08-24T00:58:40;10.30;;;4.10;;
81191;SDS011;70665;47.652;-2.730;2023-08-24T01:01:05;6.28;;;3.83;;
81191;SDS011;70665;47.652;-2.730;2023-08-24T01:03:31;7.80;;;3.83;;
81191;SDS011;70665;47.652;-2.730;2023-08-24T01:05:57;9.52;;;4.05;;
81191;SDS011;70665;47.652;-2.730;2023-08-24T01:08:23;9.95;;;3.63;;
81191;SDS011;70665;47.652;-2.730;2023-08-24T01:10:57;5.53;;;3.65;;
81191;SDS011;70665;47.652;-2.730;2023-08-24T01:16:25;7.70;;;3.60;;
81191;SDS011;70665;47.652;-2.730;2023-08-24T01:18:57;7.30;;;3.92;;
81191;SDS011;70665;47.652;-2.730;2023-08-24T01:21:25;12.52;;;3.70;;
81191;SDS011;70665;47.652;-2.730;2023-08-24T01:26:43;6.95;;;4.15;;
81191;SDS011;70665;47.652;-2.730;2023-08-24T01:29:11;7.45;;;4.00;;
81191;SDS011;70665;47.652;-2.730;2023-08-24T01:31:36;10.07;;;4.80;;
81191;SDS011;70665;47.652;-2.730;2023-08-24T01:34:02;4.90;;;3.83;;
81191;SDS011;70665;47.652;-2.730;2023-08-24T01:36:28;9.07;;;4.13;;
81191;SDS011;70665;47.652;-2.730;2023-08-24T01:38:59;9.45;;;4.35;;
81191;SDS011;70665;47.652;-2.730;2023-08-24T01:41:36;8.52;;;4.10;;
81191;SDS011;70665;47.652;-2.730;2023-08-24T01:44:08;9.57;;;4.10;;
81191;SDS011;70665;47.652;-2.730;2023-08-24T01:46:37;7.18;;;4.10;;
81191;SDS011;70665;47.652;-2.730;2023-08-24T01:49:04;6.53;;;3.63;;
81191;SDS011;70665;47.652;-2.730;2023-08-24T01:51:30;12.95;;;4.25;;
81191;SDS011;70665;47.652;-2.730;2023-08-24T01:53:57;5.88;;;4.00;;
81191;SDS011;70665;47.652;-2.730;2023-08-24T01:56:23;7.22;;;4.28;;
81191;SDS011;70665;47.652;-2.730;2023-08-24T01:58:49;12.40;;;4.32;;
81191;SDS011;70665;47.652;-2.730;2023-08-24T02:01:14;6.32;;;3.92;;
81191;SDS011;70665;47.652;-2.730;2023-08-24T02:03:40;7.32;;;4.32;;
81191;SDS011;70665;47.652;-2.730;2023-08-24T02:06:06;8.68;;;3.55;;
81191;SDS011;70665;47.652;-2.730;2023-08-24T02:08:32;9.55;;;4.25;;
81191;SDS011;70665;47.652;-2.730;2023-08-24T02:10:58;7.90;;;4.18;;
81191;SDS011;70665;47.652;-2.730;2023-08-24T02:13:23;5.18;;;3.90;;
81191;SDS011;70665;47.652;-2.730;2023-08-24T02:15:49;5.93;;;4.13;;
81191;SDS011;70665;47.652;-2.730;2023-08-24T02:18:15;7.35;;;3.58;;
81191;SDS011;70665;47.652;-2.730;2023-08-24T02:20:40;12.30;;;4.53;;
81191;SDS011;70665;47.652;-2.730;2023-08-24T02:23:06;6.28;;;3.78;;
81191;SDS011;70665;47.652;-2.730;2023-08-24T02:25:32;6.25;;;3.90;;
81191;SDS011;70665;47.652;-2.730;2023-08-24T02:27:58;9.98;;;4.00;;
81191;SDS011;70665;47.652;-2.730;2023-08-24T02:30:24;7.68;;;4.53;;
81191;SDS011;70665;47.652;-2.730;2023-08-24T02:32:50;10.20;;;4.88;;
81191;SDS011;70665;47.652;-2.730;2023-08-24T02:35:16;7.50;;;4.05;;
81191;SDS011;70665;47.652;-2.730;2023-08-24T02:37:43;8.18;;;4.30;;
81191;SDS011;70665;47.652;-2.730;2023-08-24T02:40:08;11.27;;;4.38;;
81191;SDS011;70665;47.652;-2.730;2023-08-24T02:42:34;11.43;;;4.32;;
81191;SDS011;70665;47.652;-2.730;2023-08-24T02:45:00;5.80;;;4.38;;
81191;SDS011;70665;47.652;-2.730;2023-08-24T02:47:26;8.93;;;4.43;;
81191;SDS011;70665;47.652;-2.730;2023-08-24T02:49:52;7.53;;;5.18;;
81191;SDS011;70665;47.652;-2.730;2023-08-24T02:52:17;6.85;;;4.22;;
81191;SDS011;70665;47.652;-2.730;2023-08-24T02:54:43;8.10;;;4.53;;
81191;SDS011;70665;47.652;-2.730;2023-08-24T02:57:09;8.05;;;4.35;;
81191;SDS011;70665;47.652;-2.730;2023-08-24T02:59:34;7.00;;;3.70;;
81191;SDS011;70665;47.652;-2.730;2023-08-24T03:02:00;8.48;;;4.38;;
81191;SDS011;70665;47.652;-2.730;2023-08-24T03:04:26;6.15;;;4.05;;
81191;SDS011;70665;47.652;-2.730;2023-08-24T03:06:52;6.00;;;3.90;;
81191;SDS011;70665;47.652;-2.730;2023-08-24T03:09:17;9.23;;;4.60;;
81191;SDS011;70665;47.652;-2.730;2023-08-24T03:11:43;7.50;;;3.80;;
81191;SDS011;70665;47.652;-2.730;2023-08-24T03:14:09;5.70;;;4.28;;
81191;SDS011;70665;47.652;-2.730;2023-08-24T03:16:34;10.90;;;4.40;;
81191;SDS011;70665;47.652;-2.730;2023-08-24T03:19:02;8.55;;;4.65;;
81191;SDS011;70665;47.652;-2.730;2023-08-24T03:21:27;10.35;;;4.22;;
81191;SDS011;70665;47.652;-2.730;2023-08-24T03:23:53;8.30;;;4.22;;
81191;SDS011;70665;47.652;-2.730;2023-08-24T03:26:19;7.45;;;4.43;;
81191;SDS011;70665;47.652;-2.730;2023-08-24T03:28:48;8.13;;;3.78;;
81191;SDS011;70665;47.652;-2.730;2023-08-24T03:31:13;11.52;;;4.55;;
81191;SDS011;70665;47.652;-2.730;2023-08-24T03:33:39;10.07;;;4.50;;
81191;SDS011;70665;47.652;-2.730;2023-08-24T03:36:05;6.57;;;4.53;;
81191;SDS011;70665;47.652;-2.730;2023-08-24T03:38:30;7.78;;;4.25;;
81191;SDS011;70665;47.652;-2.730;2023-08-24T03:41:00;8.98;;;4.00;;
81191;SDS011;70665;47.652;-2.730;2023-08-24T03:43:32;6.57;;;3.60;;
81191;SDS011;70665;47.652;-2.730;2023-08-24T03:45:59;6.20;;;3.90;;
81191;SDS011;70665;47.652;-2.730;2023-08-24T03:48:25;7.65;;;4.30;;
81191;SDS011;70665;47.652;-2.730;2023-08-24T03:50:53;12.55;;;5.10;;
81191;SDS011;70665;47.652;-2.730;2023-08-24T03:53:20;7.78;;;4.13;;
81191;SDS011;70665;47.652;-2.730;2023-08-24T03:55:50;7.15;;;4.30;;
81191;SDS011;70665;47.652;-2.730;2023-08-24T03:58:16;8.52;;;4.32;;
81191;SDS011;70665;47.652;-2.730;2023-08-24T04:00:42;8.30;;;4.50;;
81191;SDS011;70665;47.652;-2.730;2023-08-24T04:03:09;7.53;;;4.10;;
81191;SDS011;70665;47.652;-2.730;2023-08-24T04:05:34;7.25;;;4.80;;
81191;SDS011;70665;47.652;-2.730;2023-08-24T04:08:00;7.50;;;4.32;;
81191;SDS011;70665;47.652;-2.730;2023-08-24T04:10:26;8.40;;;4.95;;
81191;SDS011;70665;47.652;-2.730;2023-08-24T04:12:52;7.70;;;4.50;;
81191;SDS011;70665;47.652;-2.730;2023-08-24T04:15:18;8.68;;;5.10;;
81191;SDS011;70665;47.652;-2.730;2023-08-24T04:17:44;6.82;;;4.00;;
81191;SDS011;70665;47.652;-2.730;2023-08-24T04:20:09;6.45;;;4.38;;
81191;SDS011;70665;47.652;-2.730;2023-08-24T04:22:36;7.32;;;4.03;;
81191;SDS011;70665;47.652;-2.730;2023-08-24T04:25:02;6.30;;;3.80;;
81191;SDS011;70665;47.652;-2.730;2023-08-24T04:27:28;8.45;;;4.10;;
81191;SDS011;70665;47.652;-2.730;2023-08-24T04:29:53;6.20;;;4.32;;
81191;SDS011;70665;47.652;-2.730;2023-08-24T04:32:19;8.25;;;4.00;;
81191;SDS011;70665;47.652;-2.730;2023-08-24T04:34:45;6.22;;;4.20;;
81191;SDS011;70665;47.652;-2.730;2023-08-24T04:37:10;7.30;;;4.47;;
81191;SDS011;70665;47.652;-2.730;2023-08-24T04:39:36;8.57;;;3.92;;
81191;SDS011;70665;47.652;-2.730;2023-08-24T04:42:02;12.30;;;3.95;;
81191;SDS011;70665;47.652;-2.730;2023-08-24T04:44:28;8.07;;;4.20;;
81191;SDS011;70665;47.652;-2.730;2023-08-24T04:46:53;8.80;;;3.88;;
81191;SDS011;70665;47.652;-2.730;2023-08-24T04:49:19;7.82;;;3.95;;
81191;SDS011;70665;47.652;-2.730;2023-08-24T04:51:45;5.90;;;3.80;;
81191;SDS011;70665;47.652;-2.730;2023-08-24T04:54:10;6.05;;;3.90;;
81191;SDS011;70665;47.652;-2.730;2023-08-24T04:56:36;8.07;;;4.05;;
81191;SDS011;70665;47.652;-2.730;2023-08-24T04:59:02;8.90;;;4.55;;
81191;SDS011;70665;47.652;-2.730;2023-08-24T05:01:28;7.57;;;3.88;;
81191;SDS011;70665;47.652;-2.730;2023-08-24T05:03:56;7.03;;;3.97;;
81191;SDS011;70665;47.652;-2.730;2023-08-24T05:06:22;8.07;;;3.92;;
81191;SDS011;70665;47.652;-2.730;2023-08-24T05:08:47;8.18;;;3.55;;
81191;SDS011;70665;47.652;-2.730;2023-08-24T05:11:14;6.20;;;3.38;;
81191;SDS011;70665;47.652;-2.730;2023-08-24T05:13:44;10.57;;;3.70;;
81191;SDS011;70665;47.652;-2.730;2023-08-24T05:16:10;8.52;;;3.97;;
81191;SDS011;70665;47.652;-2.730;2023-08-24T05:18:36;7.63;;;3.78;;
81191;SDS011;70665;47.652;-2.730;2023-08-24T05:21:02;6.57;;;3.92;;
81191;SDS011;70665;47.652;-2.730;2023-08-24T05:23:29;7.20;;;3.88;;
81191;SDS011;70665;47.652;-2.730;2023-08-24T05:25:56;8.23;;;4.05;;
81191;SDS011;70665;47.652;-2.730;2023-08-24T05:28:23;12.07;;;4.00;;
81191;SDS011;70665;47.652;-2.730;2023-08-24T05:30:50;9.15;;;3.70;;
81191;SDS011;70665;47.652;-2.730;2023-08-24T05:33:17;6.93;;;4.05;;
81191;SDS011;70665;47.652;-2.730;2023-08-24T05:35:43;6.30;;;3.67;;
81191;SDS011;70665;47.652;-2.730;2023-08-24T05:38:08;8.18;;;4.20;;
81191;SDS011;70665;47.652;-2.730;2023-08-24T05:40:34;7.45;;;4.00;;
81191;SDS011;70665;47.652;-2.730;2023-08-24T05:43:00;5.25;;;3.78;;
81191;SDS011;70665;47.652;-2.730;2023-08-24T05:45:25;7.57;;;3.80;;
81191;SDS011;70665;47.652;-2.730;2023-08-24T05:47:51;9.40;;;4.32;;
81191;SDS011;70665;47.652;-2.730;2023-08-24T05:50:16;8.43;;;4.00;;
81191;SDS011;70665;47.652;-2.730;2023-08-24T05:52:42;6.88;;;3.85;;
81191;SDS011;70665;47.652;-2.730;2023-08-24T05:55:08;8.13;;;4.38;;
81191;SDS011;70665;47.652;-2.730;2023-08-24T05:57:33;10.77;;;4.07;;
81191;SDS011;70665;47.652;-2.730;2023-08-24T05:59:59;9.02;;;4.43;;
81191;SDS011;70665;47.652;-2.730;2023-08-24T06:02:24;8.38;;;3.53;;
81191;SDS011;70665;47.652;-2.730;2023-08-24T06:04:50;10.57;;;4.82;;
81191;SDS011;70665;47.652;-2.730;2023-08-24T06:07:16;7.35;;;3.78;;
81191;SDS011;70665;47.652;-2.730;2023-08-24T06:09:42;8.50;;;3.67;;
81191;SDS011;70665;47.652;-2.730;2023-08-24T06:12:08;6.38;;;3.97;;
81191;SDS011;70665;47.652;-2.730;2023-08-24T06:14:33;12.07;;;4.18;;
81191;SDS011;70665;47.652;-2.730;2023-08-24T06:16:59;6.05;;;3.63;;
81191;SDS011;70665;47.652;-2.730;2023-08-24T06:19:24;8.55;;;3.97;;
81191;SDS011;70665;47.652;-2.730;2023-08-24T06:21:50;5.95;;;4.25;;
81191;SDS011;70665;47.652;-2.730;2023-08-24T06:24:16;11.98;;;4.35;;
81191;SDS011;70665;47.652;-2.730;2023-08-24T06:26:41;9.27;;;3.70;;
81191;SDS011;70665;47.652;-2.730;2023-08-24T06:29:07;8.32;;;4.68;;
81191;SDS011;70665;47.652;-2.730;2023-08-24T06:31:33;8.20;;;4.32;;
81191;SDS011;70665;47.652;-2.730;2023-08-24T06:33:59;9.43;;;4.55;;
81191;SDS011;70665;47.652;-2.730;2023-08-24T06:36:25;9.85;;;3.88;;
81191;SDS011;70665;47.652;-2.730;2023-08-24T06:38:51;7.97;;;4.00;;
81191;SDS011;70665;47.652;-2.730;2023-08-24T06:41:16;8.65;;;4.57;;
81191;SDS011;70665;47.652;-2.730;2023-08-24T06:43:42;7.90;;;4.30;;
81191;SDS011;70665;47.652;-2.730;2023-08-24T06:46:08;7.85;;;3.80;;
81191;SDS011;70665;47.652;-2.730;2023-08-24T06:48:34;7.45;;;3.65;;
81191;SDS011;70665;47.652;-2.730;2023-08-24T06:51:00;8.30;;;4.70;;
81191;SDS011;70665;47.652;-2.730;2023-08-24T06:53:25;8.57;;;4.28;;
81191;SDS011;70665;47.652;-2.730;2023-08-24T06:55:57;8.30;;;4.38;;
81191;SDS011;70665;47.652;-2.730;2023-08-24T06:58:23;7.47;;;4.40;;
81191;SDS011;70665;47.652;-2.730;2023-08-24T07:00:49;7.63;;;3.58;;
81191;SDS011;70665;47.652;-2.730;2023-08-24T07:03:18;9.48;;;4.15;;
81191;SDS011;70665;47.652;-2.730;2023-08-24T07:05:44;8.95;;;4.53;;
81191;SDS011;70665;47.652;-2.730;2023-08-24T07:08:10;10.10;;;4.45;;
81191;SDS011;70665;47.652;-2.730;2023-08-24T07:10:36;8.75;;;4.00;;
81191;SDS011;70665;47.652;-2.730;2023-08-24T07:13:02;8.27;;;4.18;;
81191;SDS011;70665;47.652;-2.730;2023-08-24T07:15:27;7.18;;;4.05;;
81191;SDS011;70665;47.652;-2.730;2023-08-24T07:17:53;6.70;;;3.90;;
81191;SDS011;70665;47.652;-2.730;2023-08-24T07:20:19;8.70;;;4.57;;
81191;SDS011;70665;47.652;-2.730;2023-08-24T07:22:45;6.93;;;4.30;;
81191;SDS011;70665;47.652;-2.730;2023-08-24T07:25:11;8.35;;;4.53;;
81191;SDS011;70665;47.652;-2.730;2023-08-24T07:27:37;6.88;;;4.15;;
81191;SDS011;70665;47.652;-2.730;2023-08-24T07:30:03;9.00;;;4.10;;
81191;SDS011;70665;47.652;-2.730;2023-08-24T07:32:32;9.50;;;4.15;;
81191;SDS011;70665;47.652;-2.730;2023-08-24T07:34:58;8.77;;;4.05;;
81191;SDS011;70665;47.652;-2.730;2023-08-24T07:37:24;8.65;;;4.15;;
81191;SDS011;70665;47.652;-2.730;2023-08-24T07:39:50;8.60;;;4.13;;
81191;SDS011;70665;47.652;-2.730;2023-08-24T07:42:19;7.85;;;4.30;;
81191;SDS011;70665;47.652;-2.730;2023-08-24T07:44:45;9.77;;;4.43;;
81191;SDS011;70665;47.652;-2.730;2023-08-24T07:47:11;12.18;;;5.63;;
81191;SDS011;70665;47.652;-2.730;2023-08-24T07:49:36;15.90;;;5.50;;
81191;SDS011;70665;47.652;-2.730;2023-08-24T07:52:05;10.80;;;5.00;;
81191;SDS011;70665;47.652;-2.730;2023-08-24T07:54:30;9.65;;;5.47;;
81191;SDS011;70665;47.652;-2.730;2023-08-24T07:56:56;15.25;;;5.30;;
81191;SDS011;70665;47.652;-2.730;2023-08-24T07:59:22;8.60;;;5.15;;
81191;SDS011;70665;47.652;-2.730;2023-08-24T08:01:47;8.73;;;5.13;;
81191;SDS011;70665;47.652;-2.730;2023-08-24T08:04:13;8.88;;;4.85;;
81191;SDS011;70665;47.652;-2.730;2023-08-24T08:06:38;10.82;;;5.05;;
81191;SDS011;70665;47.652;-2.730;2023-08-24T08:09:04;9.00;;;4.90;;
81191;SDS011;70665;47.652;-2.730;2023-08-24T08:11:31;7.35;;;4.53;;
81191;SDS011;70665;47.652;-2.730;2023-08-24T08:13:57;7.07;;;5.03;;
81191;SDS011;70665;47.652;-2.730;2023-08-24T08:16:24;7.03;;;4.75;;
81191;SDS011;70665;47.652;-2.730;2023-08-24T08:18:50;10.35;;;4.38;;
81191;SDS011;70665;47.652;-2.730;2023-08-24T08:21:17;7.05;;;4.95;;
81191;SDS011;70665;47.652;-2.730;2023-08-24T08:23:43;10.38;;;5.35;;
81191;SDS011;70665;47.652;-2.730;2023-08-24T08:26:13;11.13;;;5.15;;
81191;SDS011;70665;47.652;-2.730;2023-08-24T08:28:40;7.97;;;5.22;;
81191;SDS011;70665;47.652;-2.730;2023-08-24T08:31:05;8.60;;;5.00;;
81191;SDS011;70665;47.652;-2.730;2023-08-24T08:33:31;8.25;;;4.88;;
81191;SDS011;70665;47.652;-2.730;2023-08-24T08:35:57;8.05;;;5.20;;
81191;SDS011;70665;47.652;-2.730;2023-08-24T08:38:25;12.88;;;5.93;;
81191;SDS011;70665;47.652;-2.730;2023-08-24T08:40:53;9.50;;;5.50;;
81191;SDS011;70665;47.652;-2.730;2023-08-24T08:43:21;8.15;;;5.13;;
81191;SDS011;70665;47.652;-2.730;2023-08-24T08:45:51;9.50;;;5.18;;
81191;SDS011;70665;47.652;-2.730;2023-08-24T08:48:20;9.70;;;6.38;;
81191;SDS011;70665;47.652;-2.730;2023-08-24T08:50:51;10.77;;;5.55;;
81191;SDS011;70665;47.652;-2.730;2023-08-24T08:53:27;11.23;;;5.80;;
81191;SDS011;70665;47.652;-2.730;2023-08-24T08:55:54;11.93;;;7.88;;
81191;SDS011;70665;47.652;-2.730;2023-08-24T08:58:22;10.75;;;8.27;;
81191;SDS011;70665;47.652;-2.730;2023-08-24T09:00:50;29.67;;;15.07;;
81191;SDS011;70665;47.652;-2.730;2023-08-24T09:03:17;23.45;;;14.60;;
81191;SDS011;70665;47.652;-2.730;2023-08-24T09:05:46;24.65;;;15.30;;
81191;SDS011;70665;47.652;-2.730;2023-08-24T09:08:16;19.55;;;12.40;;
81191;SDS011;70665;47.652;-2.730;2023-08-24T09:10:42;8.95;;;5.68;;
81191;SDS011;70665;47.652;-2.730;2023-08-24T09:13:07;17.80;;;10.88;;
81191;SDS011;70665;47.652;-2.730;2023-08-24T09:15:36;11.50;;;7.72;;
81191;SDS011;70665;47.652;-2.730;2023-08-24T09:18:02;7.93;;;5.00;;
81191;SDS011;70665;47.652;-2.730;2023-08-24T09:20:28;8.52;;;5.13;;
81191;SDS011;70665;47.652;-2.730;2023-08-24T09:22:54;11.98;;;5.38;;
81191;SDS011;70665;47.652;-2.730;2023-08-24T09:25:22;7.70;;;5.50;;
81191;SDS011;70665;47.652;-2.730;2023-08-24T09:28:01;7.65;;;5.30;;
81191;SDS011;70665;47.652;-2.730;2023-08-24T09:30:31;10.80;;;5.85;;
81191;SDS011;70665;47.652;-2.730;2023-08-24T09:33:03;10.65;;;6.65;;
81191;SDS011;70665;47.652;-2.730;2023-08-24T09:35:33;10.43;;;6.28;;
81191;SDS011;70665;47.652;-2.730;2023-08-24T09:38:19;10.50;;;5.53;;
81191;SDS011;70665;47.652;-2.730;2023-08-24T09:40:46;8.75;;;6.00;;
81191;SDS011;70665;47.652;-2.730;2023-08-24T09:43:16;8.48;;;5.18;;
81191;SDS011;70665;47.652;-2.730;2023-08-24T09:45:54;11.93;;;5.57;;
81191;SDS011;70665;47.652;-2.730;2023-08-24T09:48:24;11.77;;;5.10;;
81191;SDS011;70665;47.652;-2.730;2023-08-24T09:50:50;13.40;;;8.68;;
81191;SDS011;70665;47.652;-2.730;2023-08-24T09:53:17;10.05;;;5.63;;
81191;SDS011;70665;47.652;-2.730;2023-08-24T09:55:59;13.77;;;7.35;;
81191;SDS011;70665;47.652;-2.730;2023-08-24T09:58:26;18.58;;;10.82;;
81191;SDS011;70665;47.652;-2.730;2023-08-24T10:00:53;11.23;;;6.90;;
81191;SDS011;70665;47.652;-2.730;2023-08-24T10:03:20;11.38;;;6.38;;
81191;SDS011;70665;47.652;-2.730;2023-08-24T10:05:54;12.15;;;5.45;;
81191;SDS011;70665;47.652;-2.730;2023-08-24T10:08:26;9.82;;;4.68;;
81191;SDS011;70665;47.652;-2.730;2023-08-24T10:10:55;9.93;;;6.05;;
81191;SDS011;70665;47.652;-2.730;2023-08-24T10:13:27;15.77;;;5.97;;
81191;SDS011;70665;47.652;-2.730;2023-08-24T10:16:01;8.68;;;5.10;;
81191;SDS011;70665;47.652;-2.730;2023-08-24T10:18:29;11.45;;;4.70;;
81191;SDS011;70665;47.652;-2.730;2023-08-24T10:20:55;7.70;;;4.75;;
81191;SDS011;70665;47.652;-2.730;2023-08-24T10:23:21;11.40;;;4.82;;
81191;SDS011;70665;47.652;-2.730;2023-08-24T10:25:48;13.48;;;4.82;;
81191;SDS011;70665;47.652;-2.730;2023-08-24T10:28:17;8.43;;;4.70;;
81191;SDS011;70665;47.652;-2.730;2023-08-24T10:30:44;8.93;;;4.10;;
81191;SDS011;70665;47.652;-2.730;2023-08-24T10:33:13;9.30;;;4.88;;
81191;SDS011;70665;47.652;-2.730;2023-08-24T10:35:40;8.93;;;4.68;;
81191;SDS011;70665;47.652;-2.730;2023-08-24T10:38:07;9.02;;;4.65;;
81191;SDS011;70665;47.652;-2.730;2023-08-24T10:40:33;11.45;;;4.10;;
81191;SDS011;70665;47.652;-2.730;2023-08-24T10:43:03;7.07;;;4.32;;
81191;SDS011;70665;47.652;-2.730;2023-08-24T10:48:31;8.20;;;4.57;;
81191;SDS011;70665;47.652;-2.730;2023-08-24T10:51:22;8.38;;;4.85;;
81191;SDS011;70665;47.652;-2.730;2023-08-24T10:56:17;9.18;;;4.00;;
81191;SDS011;70665;47.652;-2.730;2023-08-24T10:58:44;8.50;;;4.95;;
81191;SDS011;70665;47.652;-2.730;2023-08-24T11:01:17;6.88;;;3.88;;
81191;SDS011;70665;47.652;-2.730;2023-08-24T11:03:49;6.68;;;4.20;;
81191;SDS011;70665;47.652;-2.730;2023-08-24T11:06:20;7.55;;;4.53;;
81191;SDS011;70665;47.652;-2.730;2023-08-24T11:08:47;9.43;;;4.93;;
81191;SDS011;70665;47.652;-2.730;2023-08-24T11:11:23;10.25;;;4.57;;
81191;SDS011;70665;47.652;-2.730;2023-08-24T11:16:41;8.18;;;4.43;;
81191;SDS011;70665;47.652;-2.730;2023-08-24T11:19:08;10.10;;;4.93;;
81191;SDS011;70665;47.652;-2.730;2023-08-24T11:21:35;10.68;;;4.80;;
81191;SDS011;70665;47.652;-2.730;2023-08-24T11:24:01;7.97;;;4.30;;
81191;SDS011;70665;47.652;-2.730;2023-08-24T11:26:29;6.22;;;3.90;;
81191;SDS011;70665;47.652;-2.730;2023-08-24T11:28:54;8.70;;;4.70;;
81191;SDS011;70665;47.652;-2.730;2023-08-24T11:31:22;6.63;;;4.20;;
81191;SDS011;70665;47.652;-2.730;2023-08-24T11:33:53;5.55;;;3.85;;
81191;SDS011;70665;47.652;-2.730;2023-08-24T11:36:22;5.85;;;3.83;;
81191;SDS011;70665;47.652;-2.730;2023-08-24T11:38:52;8.90;;;3.95;;
81191;SDS011;70665;47.652;-2.730;2023-08-24T11:41:18;7.10;;;4.22;;
81191;SDS011;70665;47.652;-2.730;2023-08-24T11:43:46;7.22;;;3.97;;
81191;SDS011;70665;47.652;-2.730;2023-08-24T11:46:15;5.88;;;3.50;;
81191;SDS011;70665;47.652;-2.730;2023-08-24T11:48:41;8.73;;;4.15;;
81191;SDS011;70665;47.652;-2.730;2023-08-24T11:51:11;7.18;;;3.25;;
81191;SDS011;70665;47.652;-2.730;2023-08-24T11:53:44;9.80;;;4.25;;
81191;SDS011;70665;47.652;-2.730;2023-08-24T11:56:13;8.52;;;4.43;;
81191;SDS011;70665;47.652;-2.730;2023-08-24T11:58:59;12.02;;;4.53;;
81191;SDS011;70665;47.652;-2.730;2023-08-24T12:01:26;8.38;;;4.18;;
81191;SDS011;70665;47.652;-2.730;2023-08-24T12:03:52;7.10;;;4.18;;
81191;SDS011;70665;47.652;-2.730;2023-08-24T12:06:18;8.60;;;3.78;;
81191;SDS011;70665;47.652;-2.730;2023-08-24T12:08:46;6.97;;;3.90;;
81191;SDS011;70665;47.652;-2.730;2023-08-24T12:13:43;8.65;;;4.30;;
81191;SDS011;70665;47.652;-2.730;2023-08-24T12:16:10;14.23;;;4.43;;
81191;SDS011;70665;47.652;-2.730;2023-08-24T12:18:45;10.98;;;3.70;;
81191;SDS011;70665;47.652;-2.730;2023-08-24T12:21:16;10.70;;;3.45;;
81191;SDS011;70665;47.652;-2.730;2023-08-24T12:23:42;8.98;;;3.58;;
81191;SDS011;70665;47.652;-2.730;2023-08-24T12:26:07;8.88;;;3.33;;
81191;SDS011;70665;47.652;-2.730;2023-08-24T12:28:33;13.13;;;3.90;;
81191;SDS011;70665;47.652;-2.730;2023-08-24T12:31:00;11.13;;;2.97;;
81191;SDS011;70665;47.652;-2.730;2023-08-24T12:33:28;9.68;;;3.40;;
81191;SDS011;70665;47.652;-2.730;2023-08-24T12:35:59;8.85;;;3.63;;
81191;SDS011;70665;47.652;-2.730;2023-08-24T12:38:25;11.80;;;3.67;;
81191;SDS011;70665;47.652;-2.730;2023-08-24T12:40:51;15.38;;;4.05;;
81191;SDS011;70665;47.652;-2.730;2023-08-24T12:43:18;12.73;;;3.78;;
81191;SDS011;70665;47.652;-2.730;2023-08-24T12:45:43;9.40;;;3.42;;
81191;SDS011;70665;47.652;-2.730;2023-08-24T12:48:10;12.02;;;3.42;;
81191;SDS011;70665;47.652;-2.730;2023-08-24T12:50:37;13.68;;;4.32;;
81191;SDS011;70665;47.652;-2.730;2023-08-24T12:53:03;11.07;;;3.42;;
81191;SDS011;70665;47.652;-2.730;2023-08-24T12:55:31;10.77;;;3.40;;
81191;SDS011;70665;47.652;-2.730;2023-08-24T12:57:58;11.02;;;3.47;;
81191;SDS011;70665;47.652;-2.730;2023-08-24T13:00:23;8.82;;;3.90;;
81191;SDS011;70665;47.652;-2.730;2023-08-24T13:02:49;19.45;;;4.35;;
81191;SDS011;70665;47.652;-2.730;2023-08-24T13:05:15;9.98;;;3.50;;
81191;SDS011;70665;47.652;-2.730;2023-08-24T13:07:42;13.45;;;4.43;;
81191;SDS011;70665;47.652;-2.730;2023-08-24T13:10:07;10.75;;;3.90;;
81191;SDS011;70665;47.652;-2.730;2023-08-24T13:12:34;10.57;;;3.53;;
81191;SDS011;70665;47.652;-2.730;2023-08-24T13:14:59;8.75;;;3.63;;
81191;SDS011;70665;47.652;-2.730;2023-08-24T13:17:26;10.43;;;4.13;;
81191;SDS011;70665;47.652;-2.730;2023-08-24T13:19:52;10.77;;;3.90;;
81191;SDS011;70665;47.652;-2.730;2023-08-24T13:22:18;9.77;;;3.85;;
81191;SDS011;70665;47.652;-2.730;2023-08-24T13:24:43;9.15;;;3.60;;
81191;SDS011;70665;47.652;-2.730;2023-08-24T13:27:10;13.57;;;4.65;;
81191;SDS011;70665;47.652;-2.730;2023-08-24T13:29:36;12.30;;;4.03;;
81191;SDS011;70665;47.652;-2.730;2023-08-24T13:32:02;11.02;;;3.85;;
81191;SDS011;70665;47.652;-2.730;2023-08-24T13:34:28;12.43;;;4.43;;
81191;SDS011;70665;47.652;-2.730;2023-08-24T13:36:55;9.25;;;4.50;;
81191;SDS011;70665;47.652;-2.730;2023-08-24T13:39:22;12.20;;;4.28;;
81191;SDS011;70665;47.652;-2.730;2023-08-24T13:41:48;9.75;;;3.95;;
81191;SDS011;70665;47.652;-2.730;2023-08-24T13:44:13;11.68;;;3.83;;
81191;SDS011;70665;47.652;-2.730;2023-08-24T13:46:39;8.05;;;4.00;;
81191;SDS011;70665;47.652;-2.730;2023-08-24T13:49:05;9.30;;;4.18;;
81191;SDS011;70665;47.652;-2.730;2023-08-24T13:51:30;12.35;;;4.50;;
81191;SDS011;70665;47.652;-2.730;2023-08-24T13:53:56;10.13;;;4.53;;
81191;SDS011;70665;47.652;-2.730;2023-08-24T13:56:21;13.50;;;4.10;;
81191;SDS011;70665;47.652;-2.730;2023-08-24T13:58:47;10.02;;;3.90;;
81191;SDS011;70665;47.652;-2.730;2023-08-24T14:01:13;12.57;;;4.57;;
81191;SDS011;70665;47.652;-2.730;2023-08-24T14:03:39;10.40;;;4.50;;
81191;SDS011;70665;47.652;-2.730;2023-08-24T14:06:08;11.73;;;4.57;;
81191;SDS011;70665;47.652;-2.730;2023-08-24T14:08:34;7.97;;;3.92;;
81191;SDS011;70665;47.652;-2.730;2023-08-24T14:10:59;8.30;;;3.67;;
81191;SDS011;70665;47.652;-2.730;2023-08-24T14:13:25;12.73;;;5.10;;
81191;SDS011;70665;47.652;-2.730;2023-08-24T14:15:51;10.73;;;4.63;;
81191;SDS011;70665;47.652;-2.730;2023-08-24T14:18:16;10.98;;;4.45;;
81191;SDS011;70665;47.652;-2.730;2023-08-24T14:20:43;9.73;;;4.60;;
81191;SDS011;70665;47.652;-2.730;2023-08-24T14:23:09;8.00;;;4.05;;
81191;SDS011;70665;47.652;-2.730;2023-08-24T14:25:34;11.50;;;5.07;;
81191;SDS011;70665;47.652;-2.730;2023-08-24T14:28:00;9.75;;;4.70;;
81191;SDS011;70665;47.652;-2.730;2023-08-24T14:30:26;10.50;;;4.28;;
81191;SDS011;70665;47.652;-2.730;2023-08-24T14:32:51;7.53;;;4.30;;
81191;SDS011;70665;47.652;-2.730;2023-08-24T14:35:17;15.88;;;5.07;;
81191;SDS011;70665;47.652;-2.730;2023-08-24T14:37:43;14.45;;;4.80;;
81191;SDS011;70665;47.652;-2.730;2023-08-24T14:40:08;9.80;;;4.00;;
81191;SDS011;70665;47.652;-2.730;2023-08-24T14:42:35;11.45;;;5.30;;
81191;SDS011;70665;47.652;-2.730;2023-08-24T14:45:01;8.63;;;4.70;;